Time;durP1;ratioP1;P1;durP2;ratioP2;P2;SDS_P1;SDS_P2;PMS_P1;PMS_P2;Temp;Humidity;BMP_temperature;BMP_pressure;BME280_temperature;BME280_humidity;BME280_pressure;Samples;Min_cycle;Max_cycle;Signal;HPM_P1;HPM_P2
2022/12/21 00:01:46;;;;;;;;;;;;;;;5.11;75.30;99066.94;4942800;29;2091;-79
2022/12/21 00:04:12;;;;;;;;;;;;;;;5.13;75.22;99063.00;4942518;28;2131;-81
2022/12/21 00:06:39;;;;;;;;;;;;;;;5.08;75.41;99067.38;4925821;29;2184;-81
2022/12/21 00:09:05;;;;;;;;;;;;;;;5.14;75.14;99077.97;4920951;29;2515;-80
2022/12/21 00:11:32;;;;;;;;;;;;;;;5.09;75.39;99069.84;4936768;28;2250;-81
2022/12/21 00:13:59;;;;;;;;;;;;;;;5.05;75.41;99065.94;4935925;28;2274;-81
2022/12/21 00:16:25;;;;;;;;;;;;;;;5.17;74.95;99061.53;4941041;29;2176;-81
2022/12/21 00:18:52;;;;;;;;;;;;;;;5.07;75.48;99063.06;4925241;29;2825;-82
2022/12/21 00:21:18;;;;;;;;;;;;;;;5.05;75.48;99055.28;4919816;28;2532;-81
2022/12/21 00:23:45;;;;;;;;;;;;;;;5.08;75.46;99056.69;4939991;29;2566;-82
2022/12/21 00:26:11;;;;;;;;;;;;;;;5.11;75.21;99057.06;4937794;28;2455;-82
2022/12/21 00:28:38;;;;;;;;;;;;;;;5.06;75.47;99056.09;4942690;29;2115;-82
2022/12/21 00:31:04;;;;;;;;;;;;;;;5.02;75.55;99050.38;4947093;28;2167;-82
2022/12/21 00:33:31;;;;;;;;;;;;;;;5.11;75.38;99064.25;4943698;28;2084;-82
2022/12/21 00:35:58;;;;;;;;;;;;;;;5.15;75.16;99081.47;4937114;28;2146;-82
2022/12/21 00:38:25;;;;;;;;;;;;;;;5.11;75.26;99082.94;4938803;28;2194;-81
2022/12/21 00:40:51;;;;;;;;;;;;;;;5.10;75.29;99078.66;4933106;28;2121;-81
2022/12/21 00:43:18;;;;;;;;;;;;;;;5.04;75.48;99095.53;4939171;29;2251;-81
2022/12/21 00:45:45;;;;;;;;;;;;;;;5.07;75.35;99087.09;4937493;28;2162;-81
2022/12/21 00:48:11;;;;;;;;;;;;;;;5.09;75.26;99087.66;4923472;29;2589;-81
2022/12/21 00:50:38;;;;;;;;;;;;;;;5.19;74.93;99088.00;4941725;28;2111;-81
2022/12/21 00:53:04;;;;;;;;;;;;;;;5.12;75.24;99105.94;4942823;28;2010;-81
2022/12/21 00:55:31;;;;;;;;;;;;;;;5.13;75.16;99108.38;4947488;29;2000;-81
2022/12/21 00:57:57;;;;;;;;;;;;;;;5.09;75.26;99109.03;4946144;29;1952;-81
2022/12/21 01:00:24;;;;;;;;;;;;;;;5.08;75.30;99104.72;4945086;29;2019;-81
2022/12/21 01:02:50;;;;;;;;;;;;;;;5.10;75.23;99098.16;4942669;28;1911;-81
2022/12/21 01:05:17;;;;;;;;;;;;;;;5.09;75.28;99101.00;4939199;28;2096;-81
2022/12/21 01:07:43;;;;;;;;;;;;;;;5.12;75.14;99098.75;4936632;28;2504;-81
2022/12/21 01:10:10;;;;;;;;;;;;;;;5.05;75.39;99092.63;4934151;28;2422;-81
2022/12/21 01:12:36;;;;;;;;;;;;;;;4.96;75.58;99088.63;4940705;28;2118;-81
2022/12/21 01:15:03;;;;;;;;;;;;;;;4.96;75.79;99089.44;4939795;28;2454;-81
2022/12/21 01:17:29;;;;;;;;;;;;;;;4.95;75.61;99093.16;4922400;29;2154;-81
2022/12/21 01:19:56;;;;;;;;;;;;;;;4.95;75.71;99090.47;4922436;29;2426;-81
2022/12/21 01:22:23;;;;;;;;;;;;;;;4.99;75.54;99094.31;4939714;28;2246;-82
2022/12/21 01:24:49;;;;;;;;;;;;;;;5.07;75.40;99087.91;4939903;28;2148;-81
2022/12/21 01:27:16;;;;;;;;;;;;;;;5.12;75.17;99096.09;4938725;29;2406;-81
2022/12/21 01:29:42;;;;;;;;;;;;;;;5.00;75.43;99106.66;4937163;28;2531;-81
2022/12/21 01:32:09;;;;;;;;;;;;;;;4.99;75.63;99112.19;4944864;29;2143;-80
2022/12/21 01:34:38;;;;;;;;;;;;;;;4.92;76.04;99108.78;4930592;29;2271;-80
2022/12/21 01:37:05;;;;;;;;;;;;;;;4.93;75.73;99110.41;4956236;28;2415;-82
2022/12/21 01:39:31;;;;;;;;;;;;;;;4.93;75.71;99105.88;4939236;29;2226;-80
2022/12/21 01:41:58;;;;;;;;;;;;;;;4.92;75.80;99106.91;4937430;29;2107;-81
2022/12/21 01:44:24;;;;;;;;;;;;;;;4.92;76.10;99109.59;4931741;29;2170;-82
2022/12/21 01:46:51;;;;;;;;;;;;;;;4.93;76.08;99103.22;4937672;28;2502;-81
2022/12/21 01:49:18;;;;;;;;;;;;;;;4.92;75.67;99090.91;4943399;29;2522;-81
2022/12/21 01:51:44;;;;;;;;;;;;;;;4.91;75.94;99094.63;4934271;28;2120;-82
2022/12/21 01:54:11;;;;;;;;;;;;;;;4.98;75.65;99094.56;4941013;28;2435;-82
2022/12/21 01:56:38;;;;;;;;;;;;;;;4.95;75.61;99092.34;4937795;28;2718;-80
2022/12/21 01:59:04;;;;;;;;;;;;;;;5.00;75.42;99093.31;4936636;29;2247;-80
2022/12/21 02:01:31;;;;;;;;;;;;;;;4.99;75.46;99090.84;4916592;29;2598;-80
2022/12/21 02:03:57;;;;;;;;;;;;;;;4.91;75.78;99085.78;4942308;28;2468;-80
2022/12/21 02:06:24;;;;;;;;;;;;;;;4.92;75.81;99079.44;4941014;28;2182;-80
2022/12/21 02:08:50;;;;;;;;;;;;;;;4.85;75.94;99079.47;4921971;28;2265;-80
2022/12/21 02:11:17;;;;;;;;;;;;;;;4.85;76.08;99079.47;4936473;28;2375;-81
2022/12/21 02:13:44;;;;;;;;;;;;;;;4.87;76.10;99072.06;4934604;29;2429;-82
2022/12/21 02:16:11;;;;;;;;;;;;;;;4.88;75.89;99064.88;4936073;29;2542;-81
2022/12/21 02:18:37;;;;;;;;;;;;;;;4.85;75.96;99065.31;4936863;28;2749;-82
2022/12/21 02:21:04;;;;;;;;;;;;;;;4.87;75.76;99076.59;4938209;28;2746;-80
2022/12/21 02:23:30;;;;;;;;;;;;;;;4.85;75.63;99068.78;4939180;28;2131;-82
2022/12/21 02:25:57;;;;;;;;;;;;;;;4.85;75.89;99073.31;4939034;29;2682;-82
2022/12/21 02:28:24;;;;;;;;;;;;;;;4.84;76.07;99064.50;4923013;29;2046;-82
2022/12/21 02:30:50;;;;;;;;;;;;;;;4.85;76.13;99071.47;4939214;29;2656;-82
2022/12/21 02:33:17;;;;;;;;;;;;;;;4.85;75.97;99066.13;4925161;28;2324;-82
2022/12/21 02:35:43;;;;;;;;;;;;;;;4.84;76.07;99066.34;4944362;29;2758;-82
2022/12/21 02:38:10;;;;;;;;;;;;;;;4.86;76.11;99069.63;4940913;29;2567;-82
2022/12/21 02:40:36;;;;;;;;;;;;;;;4.83;75.96;99062.06;4949793;28;2845;-82
2022/12/21 02:45:47;;;;;;;;;;;;;;;4.87;75.95;99056.06;4945320;28;2119;-83
2022/12/21 02:48:14;;;;;;;;;;;;;;;4.85;75.95;99059.97;4946437;29;2142;-80
2022/12/21 02:50:41;;;;;;;;;;;;;;;4.90;75.71;99062.81;4947630;28;2085;-82
2022/12/21 02:53:07;;;;;;;;;;;;;;;4.88;75.96;99062.22;4943657;28;2505;-82
2022/12/21 02:55:34;;;;;;;;;;;;;;;4.90;75.67;99052.97;4932993;29;2150;-82
2022/12/21 02:58:00;;;;;;;;;;;;;;;4.90;75.86;99057.47;4947818;29;2720;-81
2022/12/21 03:00:27;;;;;;;;;;;;;;;4.87;75.73;99056.06;4947304;28;2642;-83
2022/12/21 03:03:47;;;;;;;;;;;;;;;4.94;75.96;99058.66;4946849;29;2105;-81
2022/12/21 03:05:40;;;;;;;;;;;;;;;4.92;75.72;99066.91;4947129;29;2171;-80
2022/12/21 03:08:07;;;;;;;;;;;;;;;4.94;75.58;99064.00;4944311;29;2360;-82
2022/12/21 03:10:33;;;;;;;;;;;;;;;4.97;75.52;99067.06;4925931;28;2716;-82
2022/12/21 03:13:00;;;;;;;;;;;;;;;4.94;75.47;99061.31;4947348;28;2425;-82
2022/12/21 03:15:26;;;;;;;;;;;;;;;5.01;75.39;99065.59;4939652;28;2303;-82
2022/12/21 03:17:53;;;;;;;;;;;;;;;4.92;75.74;99061.56;4941773;29;2050;-82
2022/12/21 03:20:20;;;;;;;;;;;;;;;4.98;75.61;99060.69;4946532;29;2263;-82
2022/12/21 03:22:46;;;;;;;;;;;;;;;5.01;75.34;99068.25;4948603;29;2061;-82
2022/12/21 03:25:13;;;;;;;;;;;;;;;5.05;75.11;99059.81;4945632;28;2136;-81
2022/12/21 03:27:40;;;;;;;;;;;;;;;5.03;75.49;99060.03;4926676;29;2042;-81
2022/12/21 03:30:07;;;;;;;;;;;;;;;4.96;75.61;99054.75;4917680;29;2321;-81
2022/12/21 03:32:33;;;;;;;;;;;;;;;4.97;75.55;99048.38;4942124;28;2707;-83
2022/12/21 03:35:00;;;;;;;;;;;;;;;4.98;75.55;99050.00;4920875;29;2748;-82
2022/12/21 03:37:26;;;;;;;;;;;;;;;5.18;74.85;99044.47;4946409;28;2246;-81
2022/12/21 03:39:53;;;;;;;;;;;;;;;5.05;75.34;99035.78;4953826;28;2187;-81
2022/12/21 03:42:19;;;;;;;;;;;;;;;4.96;75.57;99030.72;4948735;28;2301;-81
2022/12/21 03:44:46;;;;;;;;;;;;;;;4.51;75.30;98944.78;4953179;28;2162;-80
2022/12/21 03:47:12;;;;;;;;;;;;;;;5.00;75.41;99028.47;4949212;28;2510;-81
2022/12/21 03:49:39;;;;;;;;;;;;;;;5.09;75.23;99032.47;4951711;29;2120;-82
2022/12/21 03:52:06;;;;;;;;;;;;;;;5.03;75.11;99032.50;4935723;29;2083;-82
2022/12/21 03:54:32;;;;;;;;;;;;;;;5.03;75.30;99032.50;4945546;28;2791;-82
2022/12/21 03:56:59;;;;;;;;;;;;;;;5.07;75.07;99034.53;4953277;28;2228;-82
2022/12/21 03:59:25;;;;;;;;;;;;;;;5.02;75.04;99037.03;4933176;28;2209;-82
2022/12/21 04:01:52;;;;;;;;;;;;;;;5.04;75.22;99037.66;4942128;28;2535;-82
2022/12/21 04:04:18;;;;;;;;;;;;;;;5.11;75.18;99041.06;4944600;28;2212;-83
2022/12/21 04:06:45;;;;;;;;;;;;;;;5.15;74.80;99036.91;4937170;28;2541;-83
2022/12/21 04:09:11;;;;;;;;;;;;;;;5.05;75.20;99031.25;4922881;29;2444;-83
2022/12/21 04:14:22;;;;;;;;;;;;;;;4.95;75.53;99028.28;4943288;28;2444;-83
2022/12/21 04:16:49;;;;;;;;;;;;;;;5.04;75.26;99018.97;4941609;28;2183;-83
2022/12/21 04:21:56;;;;;;;;;;;;;;;5.16;74.97;99024.38;4930055;29;2326;-82
2022/12/21 04:29:50;;;;;;;;;;;;;;;4.98;75.50;99011.84;4939781;28;2651;-81
2022/12/21 04:32:17;;;;;;;;;;;;;;;5.08;75.00;99017.47;4930087;29;2537;-82
2022/12/21 04:34:43;;;;;;;;;;;;;;;5.00;75.48;99028.47;4929843;29;2231;-81
2022/12/21 04:39:54;;;;;;;;;;;;;;;5.14;74.92;99032.59;4923250;29;2589;-82
2022/12/21 04:42:20;;;;;;;;;;;;;;;5.11;74.92;99025.03;4926493;29;2538;-83
2022/12/21 04:44:47;;;;;;;;;;;;;;;4.99;75.46;99016.94;4943502;28;2613;-84
2022/12/21 04:47:13;;;;;;;;;;;;;;;4.98;75.38;99015.31;4936140;28;2124;-82
2022/12/21 04:49:40;;;;;;;;;;;;;;;4.94;75.54;99013.31;4939360;29;2178;-83
2022/12/21 04:52:06;;;;;;;;;;;;;;;5.06;75.10;99011.56;4924351;29;2794;-83
2022/12/21 04:54:33;;;;;;;;;;;;;;;5.03;75.35;99013.84;4951789;28;2011;-83
2022/12/21 04:56:59;;;;;;;;;;;;;;;4.97;75.55;99013.69;4951592;28;2165;-83
2022/12/21 04:59:26;;;;;;;;;;;;;;;5.02;75.42;99005.03;4957359;29;1652;-83
2022/12/21 05:01:52;;;;;;;;;;;;;;;4.95;75.52;99015.78;4949312;28;2072;-83
2022/12/21 05:04:19;;;;;;;;;;;;;;;5.01;75.45;99008.72;4939564;28;2803;-83
2022/12/21 05:06:46;;;;;;;;;;;;;;;4.90;75.59;99010.28;4934562;28;2585;-84
2022/12/21 05:09:13;;;;;;;;;;;;;;;4.96;75.63;99020.06;4919469;29;2937;-83
2022/12/21 05:11:39;;;;;;;;;;;;;;;4.99;75.55;99021.47;4934969;28;2208;-84
2022/12/21 05:14:06;;;;;;;;;;;;;;;4.99;75.43;99022.28;4915449;29;2538;-83
2022/12/21 05:16:32;;;;;;;;;;;;;;;5.01;75.47;99022.88;4940289;28;2449;-83
2022/12/21 05:18:59;;;;;;;;;;;;;;;5.01;75.49;99017.56;4937293;29;2594;-82
2022/12/21 05:21:25;;;;;;;;;;;;;;;4.90;75.89;99028.94;4934477;29;2565;-82
2022/12/21 05:23:52;;;;;;;;;;;;;;;4.88;75.73;99017.69;4923244;29;2473;-83
2022/12/21 05:26:19;;;;;;;;;;;;;;;4.87;75.92;99017.91;4955627;28;2124;-82
2022/12/21 05:28:45;;;;;;;;;;;;;;;4.88;75.90;99017.69;4950800;28;2422;-83
2022/12/21 05:31:12;;;;;;;;;;;;;;;4.90;75.86;99017.47;4929167;29;2308;-82
2022/12/21 05:33:38;;;;;;;;;;;;;;;4.96;75.42;99016.56;4934912;28;2366;-82
2022/12/21 05:36:05;;;;;;;;;;;;;;;4.93;75.54;99014.34;4922403;29;2605;-82
2022/12/21 05:38:31;;;;;;;;;;;;;;;4.93;75.78;99014.34;4922375;29;2126;-82
2022/12/21 05:40:58;;;;;;;;;;;;;;;4.90;75.75;99014.78;4922953;29;2553;-82
2022/12/21 05:43:24;;;;;;;;;;;;;;;4.95;75.59;99014.97;4919702;29;2081;-81
2022/12/21 05:45:52;;;;;;;;;;;;;;;4.90;75.81;99006.78;4924206;29;2292;-81
2022/12/21 05:48:19;;;;;;;;;;;;;;;4.90;75.80;99007.59;4926877;29;2498;-82
2022/12/21 05:50:45;;;;;;;;;;;;;;;4.97;75.63;99012.88;4937648;29;2171;-83
2022/12/21 05:53:12;;;;;;;;;;;;;;;5.05;75.34;99011.78;4923487;29;2075;-82
2022/12/21 05:55:38;;;;;;;;;;;;;;;4.93;75.70;99011.69;4926805;29;2029;-82
2022/12/21 05:58:05;;;;;;;;;;;;;;;4.90;75.71;99006.78;4929857;29;2168;-82
2022/12/21 06:00:33;;;;;;;;;;;;;;;4.95;75.64;99017.63;4929379;29;2573;-82
2022/12/21 06:02:59;;;;;;;;;;;;;;;4.90;75.63;99017.47;4924898;29;2239;-81
2022/12/21 06:05:27;;;;;;;;;;;;;;;5.03;75.40;99013.84;4922282;29;2127;-83
2022/12/21 06:07:53;;;;;;;;;;;;;;;4.93;75.56;99015.16;4943282;28;2052;-79
2022/12/21 06:10:20;;;;;;;;;;;;;;;4.92;75.77;99021.53;4924278;29;2177;-80
2022/12/21 06:12:46;;;;;;;;;;;;;;;5.03;75.38;99024.50;4921231;29;2180;-82
2022/12/21 06:15:13;;;;;;;;;;;;;;;5.09;74.96;99031.63;4920329;29;2339;-82
2022/12/21 06:17:40;;;;;;;;;;;;;;;5.01;75.35;99032.75;4937854;28;2120;-81
2022/12/21 06:20:06;;;;;;;;;;;;;;;5.03;75.27;99035.19;4937178;29;2148;-82
2022/12/21 06:22:33;;;;;;;;;;;;;;;5.00;75.41;99031.94;4916646;29;2252;-80
2022/12/21 06:24:59;;;;;;;;;;;;;;;4.98;75.35;99038.53;4920985;29;2172;-81
2022/12/21 06:27:26;;;;;;;;;;;;;;;5.09;75.05;99047.63;4923694;29;2165;-81
2022/12/21 06:29:52;;;;;;;;;;;;;;;5.06;75.02;99042.75;4936616;29;2381;-80
2022/12/21 06:32:19;;;;;;;;;;;;;;;5.11;75.09;99042.91;4918643;29;2231;-80
2022/12/21 06:34:46;;;;;;;;;;;;;;;5.08;75.00;99046.84;4934933;29;2457;-81
2022/12/21 06:37:12;;;;;;;;;;;;;;;5.12;74.92;99047.22;4919081;29;2356;-81
2022/12/21 06:39:39;;;;;;;;;;;;;;;5.14;74.81;99031.78;4918677;29;2185;-80
2022/12/21 06:42:05;;;;;;;;;;;;;;;5.16;74.65;99035.06;4936532;28;2239;-80
2022/12/21 06:44:32;;;;;;;;;;;;;;;5.19;74.61;99037.28;4918994;29;2172;-80
2022/12/21 06:46:59;;;;;;;;;;;;;;;5.20;74.89;99037.06;4946832;28;2258;-79
2022/12/21 06:49:25;;;;;;;;;;;;;;;5.23;74.64;99039.31;4928956;29;2153;-79
2022/12/21 06:51:52;;;;;;;;;;;;;;;5.26;74.43;99046.03;4926706;29;2262;-79
2022/12/21 06:54:18;;;;;;;;;;;;;;;4.63;74.48;98967.03;4923824;29;2193;-79
2022/12/21 06:56:45;;;;;;;;;;;;;;;5.16;75.03;99040.41;4924854;29;2648;-81
2022/12/21 06:59:12;;;;;;;;;;;;;;;5.27;74.35;99045.00;4927576;29;2069;-80
2022/12/21 07:01:38;;;;;;;;;;;;;;;5.31;74.27;99046.19;4923002;29;2125;-80
2022/12/21 07:04:05;;;;;;;;;;;;;;;5.43;74.06;99043.59;4924761;29;2579;-80
2022/12/21 07:06:32;;;;;;;;;;;;;;;5.38;73.94;99043.44;4932125;29;2080;-80
2022/12/21 07:08:58;;;;;;;;;;;;;;;5.29;74.00;99042.91;4929842;29;2168;-81
2022/12/21 07:11:25;;;;;;;;;;;;;;;5.33;74.43;99035.31;4917724;29;2183;-80
2022/12/21 07:13:52;;;;;;;;;;;;;;;5.28;74.45;99045.81;4926915;29;2049;-79
2022/12/21 07:16:19;;;;;;;;;;;;;;;5.28;74.33;99054.63;4925998;29;2232;-80
2022/12/21 07:18:45;;;;;;;;;;;;;;;5.32;74.37;99065.69;4918620;29;2346;-79
2022/12/21 07:21:12;;;;;;;;;;;;;;;5.37;73.92;99060.50;4915189;29;2424;-80
2022/12/21 07:23:39;;;;;;;;;;;;;;;5.24;74.63;99056.13;4929569;28;2168;-80
2022/12/21 07:26:05;;;;;;;;;;;;;;;5.38;74.19;99057.63;4917828;29;2244;-80
2022/12/21 07:28:32;;;;;;;;;;;;;;;5.40;73.90;99057.38;4919029;29;2143;-79
2022/12/21 07:30:58;;;;;;;;;;;;;;;5.46;73.97;99053.84;4920088;29;2724;-79
2022/12/21 07:33:25;;;;;;;;;;;;;;;5.41;73.99;99069.69;4939179;29;2200;-79
2022/12/21 07:35:52;;;;;;;;;;;;;;;5.45;73.93;99074.38;4936434;28;2352;-80
2022/12/21 07:38:18;;;;;;;;;;;;;;;5.45;73.87;99076.25;4939221;28;2255;-80
2022/12/21 07:40:45;;;;;;;;;;;;;;;5.42;74.01;99082.84;4940185;28;2318;-79
2022/12/21 07:43:11;;;;;;;;;;;;;;;5.39;73.82;99085.13;4939639;28;2087;-79
2022/12/21 07:45:38;;;;;;;;;;;;;;;5.48;73.93;99091.81;4921982;29;2331;-80
2022/12/21 07:48:05;;;;;;;;;;;;;;;5.44;73.66;99088.78;4946543;28;2060;-78
2022/12/21 07:50:32;;;;;;;;;;;;;;;5.30;74.41;99091.81;4950631;28;2296;-78
2022/12/21 07:52:58;;;;;;;;;;;;;;;5.56;73.45;99091.53;4946083;28;2058;-78
2022/12/21 07:55:25;;;;;;;;;;;;;;;5.42;73.83;99090.03;4954679;28;1806;-79
2022/12/21 07:57:52;;;;;;;;;;;;;;;5.47;73.74;99104.34;4936968;28;2220;-79
2022/12/21 08:00:22;;;;;;;;;;;;;;;5.43;74.06;99108.50;4935522;28;2697;-79
2022/12/21 08:02:48;;;;;;;;;;;;;;;5.46;73.84;99100.03;4941415;28;2591;-78
2022/12/21 08:05:14;;;;;;;;;;;;;;;5.46;73.64;99100.03;4940040;28;2067;-80
2022/12/21 08:07:41;;;;;;;;;;;;;;;5.44;73.91;99094.13;4940364;28;2468;-80
2022/12/21 08:10:08;;;;;;;;;;;;;;;5.51;73.88;99095.91;4937309;28;2586;-79
2022/12/21 08:12:34;;;;;;;;;;;;;;;5.52;73.62;99101.00;4941864;28;2182;-80
2022/12/21 08:15:01;;;;;;;;;;;;;;;5.54;73.71;99104.28;4940367;28;2111;-79
2022/12/21 08:17:28;;;;;;;;;;;;;;;5.48;73.74;99105.16;4935244;28;2504;-80
2022/12/21 08:19:54;;;;;;;;;;;;;;;5.41;73.86;99107.06;4938529;29;2260;-80
2022/12/21 08:22:21;;;;;;;;;;;;;;;5.43;73.77;99105.00;4940107;28;2119;-79
2022/12/21 08:24:48;;;;;;;;;;;;;;;5.39;73.97;99104.63;4938857;28;2175;-80
2022/12/21 08:27:14;;;;;;;;;;;;;;;5.51;73.71;99103.91;4937961;29;2151;-78
2022/12/21 08:29:41;;;;;;;;;;;;;;;5.35;74.17;99107.97;4938323;28;2522;-78
2022/12/21 08:32:07;;;;;;;;;;;;;;;5.36;74.25;99109.63;4936047;28;2236;-80
2022/12/21 08:34:34;;;;;;;;;;;;;;;5.50;73.80;99107.59;4937383;29;2945;-79
2022/12/21 08:37:01;;;;;;;;;;;;;;;5.42;74.03;99098.06;4938390;28;2242;-79
2022/12/21 08:39:28;;;;;;;;;;;;;;;5.40;74.36;99105.47;4939984;28;2234;-78
2022/12/21 08:41:54;;;;;;;;;;;;;;;5.32;74.28;99103.06;4939536;29;2096;-77
2022/12/21 08:44:21;;;;;;;;;;;;;;;5.43;74.16;99107.69;4943018;28;2108;-78
2022/12/21 08:46:47;;;;;;;;;;;;;;;5.40;74.29;99116.13;4936907;28;2520;-79
2022/12/21 08:49:14;;;;;;;;;;;;;;;5.30;74.58;99111.31;4938249;28;2172;-80
2022/12/21 08:51:41;;;;;;;;;;;;;;;5.44;74.15;99109.31;4940335;29;2251;-79
2022/12/21 08:54:07;;;;;;;;;;;;;;;5.40;73.86;99102.78;4936156;29;2210;-80
2022/12/21 08:56:34;;;;;;;;;;;;;;;5.40;74.10;99097.44;4941303;28;2561;-80
2022/12/21 08:59:00;;;;;;;;;;;;;;;5.46;73.74;99101.91;4947881;28;2917;-77
2022/12/21 09:01:27;;;;;;;;;;;;;;;5.50;73.76;99107.59;4935203;28;2255;-78
2022/12/21 09:03:53;;;;;;;;;;;;;;;5.51;73.63;99111.94;4934659;28;2727;-80
2022/12/21 09:06:20;;;;;;;;;;;;;;;5.55;73.37;99121.13;4930286;28;2191;-80
2022/12/21 09:08:47;;;;;;;;;;;;;;;5.48;73.82;99123.88;4936436;28;2214;-80
2022/12/21 09:11:14;;;;;;;;;;;;;;;5.43;73.93;99116.50;4933636;28;2366;-81
2022/12/21 09:13:40;;;;;;;;;;;;;;;5.40;74.03;99114.28;4938836;28;2230;-78
2022/12/21 09:16:07;;;;;;;;;;;;;;;5.37;74.05;99111.25;4919184;29;2508;-79
2022/12/21 09:18:33;;;;;;;;;;;;;;;5.34;74.20;99120.50;4936618;28;2175;-79
2022/12/21 09:21:00;;;;;;;;;;;;;;;5.27;74.66;99127.78;4933050;28;2230;-78
2022/12/21 09:23:26;;;;;;;;;;;;;;;5.37;74.25;99129.94;4934416;28;2222;-77
2022/12/21 09:25:53;;;;;;;;;;;;;;;5.43;74.02;99134.38;4932368;28;2389;-79
2022/12/21 09:28:20;;;;;;;;;;;;;;;5.37;74.24;99136.06;4935386;28;2321;-79
2022/12/21 09:30:47;;;;;;;;;;;;;;;5.23;74.59;99143.41;4933874;28;2440;-78
2022/12/21 09:33:13;;;;;;;;;;;;;;;5.44;74.04;99146.69;4930829;28;4896;-80
2022/12/21 09:35:40;;;;;;;;;;;;;;;5.34;74.31;99149.88;4932814;28;3876;-79
2022/12/21 09:38:06;;;;;;;;;;;;;;;5.41;74.02;99139.97;4933970;28;2424;-81
2022/12/21 09:40:33;;;;;;;;;;;;;;;5.40;73.95;99137.50;4925566;28;3881;-80
2022/12/21 09:42:59;;;;;;;;;;;;;;;5.28;74.40;99132.06;4932437;28;3275;-81
2022/12/21 09:45:26;;;;;;;;;;;;;;;5.34;74.26;99131.19;4929412;28;2376;-80
2022/12/21 09:47:53;;;;;;;;;;;;;;;5.33;74.14;99134.09;4928523;28;2269;-80
2022/12/21 09:50:20;;;;;;;;;;;;;;;5.31;74.62;99154.84;4935761;28;2306;-81
2022/12/21 09:52:46;;;;;;;;;;;;;;;5.30;74.43;99135.34;4916434;29;2476;-81
2022/12/21 09:55:13;;;;;;;;;;;;;;;5.26;74.39;99136.78;4936801;28;2364;-80
2022/12/21 09:57:40;;;;;;;;;;;;;;;5.24;74.59;99139.69;4931282;28;2235;-81
2022/12/21 10:00:07;;;;;;;;;;;;;;;5.34;74.39;99138.38;4935166;28;2360;-81
2022/12/21 10:02:34;;;;;;;;;;;;;;;5.32;74.28;99127.91;4935778;28;2520;-81
2022/12/21 10:05:00;;;;;;;;;;;;;;;5.19;74.71;99128.03;4933579;28;2288;-82
2022/12/21 10:07:27;;;;;;;;;;;;;;;5.25;74.63;99129.84;4934029;28;2413;-82
2022/12/21 10:09:53;;;;;;;;;;;;;;;5.25;74.60;99124.50;4936079;28;2319;-82
2022/12/21 10:12:20;;;;;;;;;;;;;;;5.22;74.82;99130.28;4937700;28;2663;-82
2022/12/21 10:14:47;;;;;;;;;;;;;;;5.15;74.78;99116.19;4932190;28;2473;-82
2022/12/21 10:17:13;;;;;;;;;;;;;;;5.18;74.84;99113.06;4937536;28;2290;-81
2022/12/21 10:19:40;;;;;;;;;;;;;;;5.19;74.82;99107.50;4937327;28;2668;-82
2022/12/21 10:22:06;;;;;;;;;;;;;;;5.15;75.08;99114.31;4950690;28;2682;-81
2022/12/21 10:24:33;;;;;;;;;;;;;;;5.17;74.77;99103.41;4946018;28;2048;-82
2022/12/21 10:26:59;;;;;;;;;;;;;;;5.22;74.68;99101.72;4947097;29;1911;-81
2022/12/21 10:29:26;;;;;;;;;;;;;;;5.29;74.48;99106.19;4949239;28;2345;-81
2022/12/21 10:31:53;;;;;;;;;;;;;;;5.14;74.84;99103.84;4941123;28;2408;-82
2022/12/21 10:34:20;;;;;;;;;;;;;;;5.22;74.64;99096.38;4938923;28;2530;-82
2022/12/21 10:36:47;;;;;;;;;;;;;;;5.19;74.96;99099.50;4939673;28;2673;-82
2022/12/21 10:39:13;;;;;;;;;;;;;;;5.12;75.03;99087.25;4944368;28;2206;-81
2022/12/21 10:41:40;;;;;;;;;;;;;;;5.14;75.01;99083.31;4940890;29;2097;-82
2022/12/21 10:44:06;;;;;;;;;;;;;;;5.24;74.71;99070.28;4941103;29;2040;-82
2022/12/21 10:46:33;;;;;;;;;;;;;;;5.11;75.14;99074.94;4939651;28;2416;-82
2022/12/21 10:48:59;;;;;;;;;;;;;;;5.08;75.38;99080.72;4942949;28;2100;-82
2022/12/21 10:51:26;;;;;;;;;;;;;;;5.14;75.13;99071.81;4937377;28;5020;-82
2022/12/21 10:53:52;;;;;;;;;;;;;;;5.08;75.15;99068.19;4935243;28;2246;-82
2022/12/21 10:56:19;;;;;;;;;;;;;;;5.04;75.39;99075.00;4933893;29;2237;-82
2022/12/21 10:58:45;;;;;;;;;;;;;;;5.09;75.28;99067.16;4949001;28;1720;-83
2022/12/21 11:01:12;;;;;;;;;;;;;;;5.08;75.29;99065.50;4950354;28;2127;-81
2022/12/21 11:03:39;;;;;;;;;;;;;;;5.07;75.28;99063.06;4937787;29;4663;-82
2022/12/21 11:06:05;;;;;;;;;;;;;;;5.05;75.68;99070.47;4939218;28;2204;-82
2022/12/21 11:08:32;;;;;;;;;;;;;;;5.11;75.25;99070.41;4963247;28;1191;-81
2022/12/21 11:11:00;;;;;;;;;;;;;;;5.01;75.58;99070.91;4952900;28;5284;-82
2022/12/21 11:13:27;;;;;;;;;;;;;;;5.06;75.50;99080.09;4954186;28;5159;-82
2022/12/21 11:15:54;;;;;;;;;;;;;;;5.00;75.72;99082.63;4937503;29;2433;-83
2022/12/21 11:18:20;;;;;;;;;;;;;;;5.03;75.52;99077.88;4951801;28;2142;-82
2022/12/21 11:20:47;;;;;;;;;;;;;;;5.03;75.54;99081.38;4944233;29;3998;-82
2022/12/21 11:23:14;;;;;;;;;;;;;;;4.99;75.88;99078.31;4949491;28;1598;-83
2022/12/21 11:25:40;;;;;;;;;;;;;;;5.04;75.67;99071.53;4943539;29;2232;-82
2022/12/21 11:28:07;;;;;;;;;;;;;;;5.05;75.69;99081.97;4957069;28;2057;-83
2022/12/21 11:30:34;;;;;;;;;;;;;;;5.06;75.50;99078.28;4952843;28;2152;-84
2022/12/21 11:33:01;;;;;;;;;;;;;;;5.14;75.48;99079.84;4939474;29;2261;-82
2022/12/21 11:35:27;;;;;;;;;;;;;;;5.03;75.67;99073.38;4949097;28;2022;-83
2022/12/21 11:37:54;;;;;;;;;;;;;;;5.05;75.78;99073.97;4963333;28;1955;-83
2022/12/21 11:40:21;;;;;;;;;;;;;;;5.00;75.84;99071.97;4947167;28;2143;-83
2022/12/21 11:42:47;;;;;;;;;;;;;;;5.04;75.82;99068.84;4948351;28;1510;-83
2022/12/21 11:45:14;;;;;;;;;;;;;;;5.03;75.67;99067.19;4952514;28;2001;-82
2022/12/21 11:47:40;;;;;;;;;;;;;;;5.01;75.83;99065.59;4944445;29;2002;-81
2022/12/21 11:50:07;;;;;;;;;;;;;;;5.04;75.70;99063.53;4946721;28;2843;-82
2022/12/21 11:52:34;;;;;;;;;;;;;;;5.02;75.79;99071.72;4947710;28;2452;-82
2022/12/21 11:55:00;;;;;;;;;;;;;;;5.03;75.76;99069.88;4942099;28;4973;-81
2022/12/21 11:57:27;;;;;;;;;;;;;;;5.01;75.86;99059.44;4948436;28;3825;-82
2022/12/21 11:59:53;;;;;;;;;;;;;;;4.99;76.01;99054.31;4951987;29;2246;-82
2022/12/21 12:02:20;;;;;;;;;;;;;;;5.02;75.92;99058.38;4952360;28;1997;-81
2022/12/21 12:04:46;;;;;;;;;;;;;;;5.01;76.02;99059.44;4943220;28;1919;-82
2022/12/21 12:07:13;;;;;;;;;;;;;;;5.01;76.17;99060.25;4956386;28;1985;-82
2022/12/21 12:09:39;;;;;;;;;;;;;;;5.03;75.87;99056.53;4964716;28;1200;-83
2022/12/21 12:12:06;;;;;;;;;;;;;;;5.00;75.99;99052.47;4958474;28;2029;-82
2022/12/21 12:14:32;;;;;;;;;;;;;;;5.03;75.93;99052.03;4941870;28;2203;-84
2022/12/21 12:16:59;;;;;;;;;;;;;;;5.02;75.95;99058.38;4944372;28;2534;-82
2022/12/21 12:19:26;;;;;;;;;;;;;;;5.01;75.86;99065.59;4928870;28;2836;-82
2022/12/21 12:21:53;;;;;;;;;;;;;;;5.06;75.93;99077.44;4947985;28;1754;-82
2022/12/21 12:24:19;;;;;;;;;;;;;;;5.05;75.83;99071.28;4953407;28;1569;-83
2022/12/21 12:26:46;;;;;;;;;;;;;;;5.04;76.01;99082.19;4945304;28;2085;-83
2022/12/21 12:29:12;;;;;;;;;;;;;;;5.04;75.87;99079.53;4952106;28;2287;-82
2022/12/21 12:31:39;;;;;;;;;;;;;;;5.06;76.28;99069.44;4940908;28;1605;-84
2022/12/21 12:34:05;;;;;;;;;;;;;;;5.03;76.04;99070.72;4947925;28;2144;-83
2022/12/21 12:36:32;;;;;;;;;;;;;;;5.01;75.92;99060.25;4948284;28;1667;-83
2022/12/21 12:38:58;;;;;;;;;;;;;;;5.03;76.09;99061.88;4947731;28;4979;-83
2022/12/21 12:41:25;;;;;;;;;;;;;;;5.00;76.01;99049.81;4946875;28;4333;-83
2022/12/21 12:43:51;;;;;;;;;;;;;;;5.03;76.28;99060.03;4953736;28;2220;-82
2022/12/21 12:46:18;;;;;;;;;;;;;;;5.01;76.12;99054.09;4948264;28;3907;-83
2022/12/21 12:48:45;;;;;;;;;;;;;;;5.03;76.04;99057.38;4947727;28;1727;-83
2022/12/21 12:51:11;;;;;;;;;;;;;;;5.04;76.16;99050.19;4937137;28;3217;-83
2022/12/21 12:53:38;;;;;;;;;;;;;;;5.04;76.23;99058.19;4932194;28;3155;-83
2022/12/21 12:56:04;;;;;;;;;;;;;;;5.06;75.99;99050.75;4942956;28;2202;-84
2022/12/21 12:58:31;;;;;;;;;;;;;;;5.06;76.08;99048.09;4930641;29;2537;-84
2022/12/21 13:00:58;;;;;;;;;;;;;;;5.06;76.13;99043.59;4948926;28;2761;-85
2022/12/21 13:03:24;;;;;;;;;;;;;;;5.03;76.04;99040.53;4933860;29;2022;-83
2022/12/21 13:05:51;;;;;;;;;;;;;;;5.01;76.19;99041.56;4943499;28;2093;-83
2022/12/21 13:08:18;;;;;;;;;;;;;;;5.00;76.19;99044.47;4949790;28;1361;-84
2022/12/21 13:10:44;;;;;;;;;;;;;;;5.03;76.19;99053.88;4936717;28;2002;-84
2022/12/21 13:13:12;;;;;;;;;;;;;;;5.02;76.07;99053.06;4935382;29;2035;-84
2022/12/21 13:15:39;;;;;;;;;;;;;;;5.04;76.05;99052.84;4948146;28;2034;-84
2022/12/21 13:18:05;;;;;;;;;;;;;;;5.03;76.24;99053.88;4944239;28;2137;-84
2022/12/21 13:20:32;;;;;;;;;;;;;;;5.05;76.21;99057.94;4952622;28;1419;-86